createdAt,value
2019-05-29T00:00:03.535Z,100.00
2019-05-29T00:10:04.234Z,100.00
2019-05-29T00:20:03.889Z,100.00
2019-05-29T00:30:04.073Z,99.93
2019-05-29T00:40:03.129Z,99.86
2019-05-29T00:50:03.723Z,100.00
2019-05-29T01:00:03.675Z,100.00
2019-05-29T01:10:02.940Z,100.00
2019-05-29T01:20:03.134Z,100.00
2019-05-29T01:30:03.897Z,100.00
2019-05-29T01:40:24.170Z,100.00
2019-05-29T01:50:03.380Z,100.00
2019-05-29T02:00:05.799Z,100.00
2019-05-29T02:10:02.910Z,100.00
2019-05-29T02:20:03.798Z,100.00
2019-05-29T02:30:03.180Z,100.00
2019-05-29T02:40:03.422Z,100.00
2019-05-29T02:50:03.315Z,100.00
2019-05-29T03:00:03.784Z,100.00
2019-05-29T03:10:02.929Z,100.00
2019-05-29T03:20:02.905Z,100.00
2019-05-29T03:30:03.360Z,100.00
2019-05-29T03:40:03.459Z,100.00
2019-05-29T03:50:03.501Z,100.00
2019-05-29T04:00:03.589Z,100.00
2019-05-29T04:10:02.506Z,100.00
2019-05-29T04:20:02.726Z,100.00
2019-05-29T04:30:03.633Z,100.00
2019-05-29T04:40:02.822Z,100.00
2019-05-29T04:50:03.121Z,100.00
2019-05-29T05:00:03.963Z,99.50
2019-05-29T05:10:03.420Z,98.69
2019-05-29T05:20:02.524Z,98.54
2019-05-29T05:30:04.179Z,98.51
2019-05-29T05:40:07.454Z,97.53
2019-05-29T05:50:02.730Z,97.18
2019-05-29T06:00:04.027Z,94.84
2019-05-29T06:10:03.252Z,92.71
2019-05-29T06:20:03.927Z,93.03
2019-05-29T06:30:04.080Z,90.35
2019-05-29T06:40:02.753Z,86.89
2019-05-29T06:50:02.666Z,85.14
2019-05-29T07:00:04.248Z,86.43
2019-05-29T07:10:03.251Z,85.54
2019-05-29T07:20:04.540Z,81.46
2019-05-29T07:30:03.123Z,80.58
2019-05-29T07:40:03.424Z,79.92
2019-05-29T07:50:03.728Z,75.82
2019-05-29T08:00:03.605Z,79.41
2019-05-29T08:10:03.516Z,76.70
2019-05-29T08:20:08.259Z,77.82
2019-05-29T08:30:04.150Z,74.49
2019-05-29T08:40:02.921Z,73.07
2019-05-29T08:50:19.079Z,70.80
2019-05-29T09:00:03.294Z,70.53
2019-05-29T09:10:03.094Z,71.10
2019-05-29T09:20:03.044Z,67.78
2019-05-29T09:30:03.957Z,71.93
2019-05-29T09:40:02.955Z,86.09
2019-05-29T09:50:02.639Z,92.62
2019-05-29T10:00:04.843Z,91.69
2019-05-29T10:10:05.353Z,88.21
2019-05-29T10:20:05.005Z,83.56
2019-05-29T10:30:03.638Z,79.99
2019-05-29T10:40:02.635Z,75.81
2019-05-29T10:50:03.523Z,72.46
2019-05-29T11:00:05.322Z,69.53
2019-05-29T11:10:03.439Z,67.77
2019-05-29T11:20:02.892Z,65.61
2019-05-29T11:30:03.714Z,65.38
2019-05-29T11:40:03.780Z,62.92
2019-05-29T11:50:19.995Z,62.97
2019-05-29T12:00:20.020Z,61.70
2019-05-29T12:10:05.586Z,61.24
2019-05-29T12:30:04.192Z,87.85
2019-05-29T12:40:04.171Z,89.15
2019-05-29T12:50:04.692Z,90.23
2019-05-29T13:00:06.145Z,88.49
2019-05-29T13:10:05.008Z,90.73
2019-05-29T13:20:21.885Z,90.22
2019-05-29T13:30:08.155Z,88.94
2019-05-29T13:40:08.381Z,88.08
2019-05-29T13:50:11.360Z,84.21
2019-05-29T14:00:32.913Z,82.86
2019-05-29T14:10:06.450Z,79.41
2019-05-29T14:20:03.056Z,79.78
2019-05-29T14:30:07.663Z,79.94
2019-05-29T14:40:03.988Z,79.77
2019-05-29T14:50:04.586Z,79.95
2019-05-29T15:00:20.527Z,80.10
2019-05-29T15:20:02.835Z,79.83
2019-05-29T15:30:03.189Z,79.75
2019-05-29T15:40:03.113Z,77.05
2019-05-29T15:50:03.456Z,80.27
2019-05-29T16:00:04.078Z,81.04
2019-05-29T16:10:03.162Z,80.04
2019-05-29T16:20:03.574Z,80.92
2019-05-29T16:30:03.690Z,81.59
2019-05-29T16:40:02.579Z,80.55
2019-05-29T16:50:03.430Z,80.88
2019-05-29T17:00:04.007Z,78.04
2019-05-29T17:10:02.615Z,77.79
2019-05-29T17:20:03.797Z,77.82
2019-05-29T17:30:09.015Z,79.48
2019-05-29T17:40:03.387Z,80.78
2019-05-29T17:50:03.031Z,80.38
2019-05-29T18:00:03.526Z,80.30
2019-05-29T18:10:02.808Z,79.03
2019-05-29T18:20:03.505Z,78.88
2019-05-29T18:30:04.141Z,80.38
2019-05-29T18:40:02.973Z,79.71
2019-05-29T18:50:02.621Z,79.56
2019-05-29T19:00:04.078Z,83.41
2019-05-29T19:10:07.158Z,84.01
2019-05-29T19:20:02.577Z,84.53
2019-05-29T19:30:03.941Z,83.86
2019-05-29T19:40:02.973Z,82.40
2019-05-29T19:50:02.971Z,85.36
2019-05-29T20:00:03.498Z,85.84
2019-05-29T20:10:03.107Z,87.48
2019-05-29T20:20:03.685Z,87.66
2019-05-29T20:30:04.080Z,88.14
2019-05-29T20:40:02.933Z,88.33
2019-05-29T20:50:02.948Z,88.08
2019-05-29T21:00:03.749Z,88.43
2019-05-29T21:10:03.630Z,89.67
2019-05-29T21:20:03.587Z,90.22
2019-05-29T21:30:03.266Z,89.97
2019-05-29T21:40:04.084Z,89.41
2019-05-29T21:50:03.208Z,89.50
2019-05-29T22:00:04.769Z,89.76
2019-05-29T22:10:03.522Z,90.90
2019-05-29T22:20:02.950Z,91.31
2019-05-29T22:30:03.745Z,90.05
2019-05-29T22:40:02.565Z,89.82
2019-05-29T22:50:02.965Z,90.64
2019-05-29T23:00:03.020Z,90.69
2019-05-29T23:10:03.252Z,91.85
2019-05-29T23:20:04.610Z,91.16
2019-05-29T23:30:04.163Z,90.53
2019-05-29T23:40:03.921Z,92.28
2019-05-29T23:50:04.761Z,93.76
